sensor_id;sensor_type;location;lat;lon;timestamp;pressure;altitude;pressure_sealevel;temperature;humidity
38716;BME280;24833;49.324;8.694;2023-01-28T00:00:53;100560.13;;;1.87;93.33
38716;BME280;24833;49.324;8.694;2023-01-28T00:03:20;100551.38;;;1.87;93.39
38716;BME280;24833;49.324;8.694;2023-01-28T00:05:47;100540.00;;;1.86;93.43
38716;BME280;24833;49.324;8.694;2023-01-28T00:08:14;100546.09;;;1.87;93.43
38716;BME280;24833;49.324;8.694;2023-01-28T00:10:41;100542.63;;;1.86;93.22
38716;BME280;24833;49.324;8.694;2023-01-28T00:13:11;100535.56;;;1.87;93.16
38716;BME280;24833;49.324;8.694;2023-01-28T00:15:40;100536.44;;;1.87;93.23
38716;BME280;24833;49.324;8.694;2023-01-28T00:18:08;100533.81;;;1.87;93.25
38716;BME280;24833;49.324;8.694;2023-01-28T00:20:35;100536.44;;;1.87;93.14
38716;BME280;24833;49.324;8.694;2023-01-28T00:23:02;100536.44;;;1.87;93.42
38716;BME280;24833;49.324;8.694;2023-01-28T00:25:30;100538.19;;;1.87;93.40
38716;BME280;24833;49.324;8.694;2023-01-28T00:27:57;100533.81;;;1.87;93.36
38716;BME280;24833;49.324;8.694;2023-01-28T00:30:23;100535.56;;;1.87;93.29
38716;BME280;24833;49.324;8.694;2023-01-28T00:32:53;100534.72;;;1.86;93.24
38716;BME280;24833;49.324;8.694;2023-01-28T00:35:20;100535.47;;;1.88;93.30
38716;BME280;24833;49.324;8.694;2023-01-28T00:37:47;100534.63;;;1.88;93.35
38716;BME280;24833;49.324;8.694;2023-01-28T00:40:14;100537.28;;;1.88;93.33
38716;BME280;24833;49.324;8.694;2023-01-28T00:42:41;100524.94;;;1.88;93.22
38716;BME280;24833;49.324;8.694;2023-01-28T00:45:09;100526.75;;;1.88;93.44
38716;BME280;24833;49.324;8.694;2023-01-28T00:47:36;100521.47;;;1.88;93.41
38716;BME280;24833;49.324;8.694;2023-01-28T00:50:04;100517.03;;;1.88;93.14
38716;BME280;24833;49.324;8.694;2023-01-28T00:52:31;100517.88;;;1.89;93.31
38716;BME280;24833;49.324;8.694;2023-01-28T00:54:58;100518.72;;;1.89;93.26
38716;BME280;24833;49.324;8.694;2023-01-28T00:57:25;100511.78;;;1.88;93.21
38716;BME280;24833;49.324;8.694;2023-01-28T00:59:52;100513.56;;;1.88;93.37
38716;BME280;24833;49.324;8.694;2023-01-28T01:02:21;100509.16;;;1.88;93.01
38716;BME280;24833;49.324;8.694;2023-01-28T01:04:48;100513.44;;;1.89;93.56
38716;BME280;24833;49.324;8.694;2023-01-28T01:07:29;100517.03;;;1.88;93.05
38716;BME280;24833;49.324;8.694;2023-01-28T01:10:12;100525.03;;;1.87;93.05
38716;BME280;24833;49.324;8.694;2023-01-28T01:12:40;100526.84;;;1.86;93.09
38716;BME280;24833;49.324;8.694;2023-01-28T01:15:09;100522.53;;;1.85;93.12
38716;BME280;24833;49.324;8.694;2023-01-28T01:17:38;100526.00;;;1.86;93.10
38716;BME280;24833;49.324;8.694;2023-01-28T01:20:12;100527.78;;;1.85;93.04
38716;BME280;24833;49.324;8.694;2023-01-28T01:22:39;100533.91;;;1.86;93.08
38716;BME280;24833;49.324;8.694;2023-01-28T01:25:07;100538.31;;;1.85;93.49
38716;BME280;24833;49.324;8.694;2023-01-28T01:27:34;100542.75;;;1.85;93.01
38716;BME280;24833;49.324;8.694;2023-01-28T01:30:01;100538.31;;;1.85;93.00
38716;BME280;24833;49.324;8.694;2023-01-28T01:32:31;100538.31;;;1.85;93.02
38716;BME280;24833;49.324;8.694;2023-01-28T01:34:58;100541.91;;;1.84;93.09
38716;BME280;24833;49.324;8.694;2023-01-28T01:37:25;100541.91;;;1.84;92.95
38716;BME280;24833;49.324;8.694;2023-01-28T01:39:52;100545.38;;;1.85;93.20
38716;BME280;24833;49.324;8.694;2023-01-28T01:42:20;100548.84;;;1.85;93.05
38716;BME280;24833;49.324;8.694;2023-01-28T01:45:12;100545.38;;;1.85;93.04
38716;BME280;24833;49.324;8.694;2023-01-28T01:48:22;100541.91;;;1.84;92.80
38716;BME280;24833;49.324;8.694;2023-01-28T01:50:58;100541.91;;;1.84;93.42
38716;BME280;24833;49.324;8.694;2023-01-28T01:53:27;100541.91;;;1.84;93.17
38716;BME280;24833;49.324;8.694;2023-01-28T01:56:02;100536.66;;;1.84;93.04
38716;BME280;24833;49.324;8.694;2023-01-28T01:58:34;100535.00;;;1.83;93.12
38716;BME280;24833;49.324;8.694;2023-01-28T02:01:03;100535.00;;;1.83;92.95
38716;BME280;24833;49.324;8.694;2023-01-28T02:03:54;100534.16;;;1.83;93.09
38716;BME280;24833;49.324;8.694;2023-01-28T02:06:23;100543.84;;;1.82;93.22
38716;BME280;24833;49.324;8.694;2023-01-28T02:08:56;100540.25;;;1.83;92.97
38716;BME280;24833;49.324;8.694;2023-01-28T02:11:30;100544.69;;;1.83;92.94
38716;BME280;24833;49.324;8.694;2023-01-28T02:14:02;100540.25;;;1.83;92.99
38716;BME280;24833;49.324;8.694;2023-01-28T02:16:31;100533.31;;;1.82;92.93
38716;BME280;24833;49.324;8.694;2023-01-28T02:18:58;100532.34;;;1.83;93.16
38716;BME280;24833;49.324;8.694;2023-01-28T02:22:00;100540.25;;;1.83;93.22
38716;BME280;24833;49.324;8.694;2023-01-28T02:25:25;100538.47;;;1.84;93.20
38716;BME280;24833;49.324;8.694;2023-01-28T02:28:26;100541.91;;;1.84;93.21
38716;BME280;24833;49.324;8.694;2023-01-28T02:31:26;100536.66;;;1.84;92.95
38716;BME280;24833;49.324;8.694;2023-01-28T02:34:18;100535.00;;;1.83;93.12
38716;BME280;24833;49.324;8.694;2023-01-28T02:36:59;100541.09;;;1.84;92.99
38716;BME280;24833;49.324;8.694;2023-01-28T02:39:33;100530.56;;;1.84;93.08
38716;BME280;24833;49.324;8.694;2023-01-28T02:42:10;100540.25;;;1.83;93.11
38716;BME280;24833;49.324;8.694;2023-01-28T02:44:39;100537.63;;;1.83;92.95
38716;BME280;24833;49.324;8.694;2023-01-28T02:47:11;100549.00;;;1.84;93.11
38716;BME280;24833;49.324;8.694;2023-01-28T02:50:01;100548.03;;;1.85;93.14
38716;BME280;24833;49.324;8.694;2023-01-28T02:53:09;100552.44;;;1.84;93.24
38716;BME280;24833;49.324;8.694;2023-01-28T02:59:03;100549.81;;;1.84;93.17
38716;BME280;24833;49.324;8.694;2023-01-28T03:02:22;100552.44;;;1.84;92.98
38716;BME280;24833;49.324;8.694;2023-01-28T03:05:06;100548.84;;;1.85;93.25
38716;BME280;24833;49.324;8.694;2023-01-28T03:07:37;100545.25;;;1.86;92.92
38716;BME280;24833;49.324;8.694;2023-01-28T03:10:10;100557.59;;;1.86;93.12
38716;BME280;24833;49.324;8.694;2023-01-28T03:12:43;100549.69;;;1.86;93.21
38716;BME280;24833;49.324;8.694;2023-01-28T03:15:38;100551.38;;;1.87;92.85
38716;BME280;24833;49.324;8.694;2023-01-28T03:18:39;100554.13;;;1.85;93.10
38716;BME280;24833;49.324;8.694;2023-01-28T03:21:37;100556.63;;;1.87;93.23
38716;BME280;24833;49.324;8.694;2023-01-28T03:24:27;100557.59;;;1.86;93.25
38716;BME280;24833;49.324;8.694;2023-01-28T03:27:49;100559.38;;;1.85;92.84
38716;BME280;24833;49.324;8.694;2023-01-28T03:31:02;100559.38;;;1.85;93.16
38716;BME280;24833;49.324;8.694;2023-01-28T03:33:53;100555.09;;;1.84;92.92
38716;BME280;24833;49.324;8.694;2023-01-28T03:36:39;100562.16;;;1.84;92.98
38716;BME280;24833;49.324;8.694;2023-01-28T03:39:37;100556.88;;;1.84;92.98
38716;BME280;24833;49.324;8.694;2023-01-28T03:42:13;100563.94;;;1.83;93.18
38716;BME280;24833;49.324;8.694;2023-01-28T03:44:52;100557.72;;;1.84;93.01
38716;BME280;24833;49.324;8.694;2023-01-28T03:47:26;100562.16;;;1.84;92.98
38716;BME280;24833;49.324;8.694;2023-01-28T03:49:55;100555.09;;;1.84;93.23
38716;BME280;24833;49.324;8.694;2023-01-28T03:52:30;100569.22;;;1.83;93.08
38716;BME280;24833;49.324;8.694;2023-01-28T03:55:27;100572.81;;;1.82;93.10
38716;BME280;24833;49.324;8.694;2023-01-28T03:57:54;100578.06;;;1.82;93.09
38716;BME280;24833;49.324;8.694;2023-01-28T04:00:21;100572.81;;;1.82;92.99
38716;BME280;24833;49.324;8.694;2023-01-28T04:02:49;100570.19;;;1.82;92.88
38716;BME280;24833;49.324;8.694;2023-01-28T04:05:18;100577.25;;;1.82;93.17
38716;BME280;24833;49.324;8.694;2023-01-28T04:07:47;100588.59;;;1.82;93.17
38716;BME280;24833;49.324;8.694;2023-01-28T04:10:24;100584.31;;;1.81;93.05
38716;BME280;24833;49.324;8.694;2023-01-28T04:13:03;100584.31;;;1.81;93.24
38716;BME280;24833;49.324;8.694;2023-01-28T04:15:30;100585.22;;;1.80;93.06
38716;BME280;24833;49.324;8.694;2023-01-28T04:17:57;100581.75;;;1.80;92.95
38716;BME280;24833;49.324;8.694;2023-01-28T04:20:28;100578.19;;;1.81;93.10
38716;BME280;24833;49.324;8.694;2023-01-28T04:22:58;100585.22;;;1.80;92.85
38716;BME280;24833;49.324;8.694;2023-01-28T04:25:25;100588.72;;;1.81;92.83
38716;BME280;24833;49.324;8.694;2023-01-28T04:27:52;100583.47;;;1.81;93.00
38716;BME280;24833;49.324;8.694;2023-01-28T04:30:22;100594.00;;;1.81;92.97
38716;BME280;24833;49.324;8.694;2023-01-28T04:33:07;100599.25;;;1.81;92.81
38716;BME280;24833;49.324;8.694;2023-01-28T04:35:40;100601.03;;;1.80;93.02
38716;BME280;24833;49.324;8.694;2023-01-28T04:38:20;100600.94;;;1.82;92.90
38716;BME280;24833;49.324;8.694;2023-01-28T04:40:56;100599.25;;;1.81;93.11
38716;BME280;24833;49.324;8.694;2023-01-28T04:43:30;100594.84;;;1.81;93.04
38716;BME280;24833;49.324;8.694;2023-01-28T04:46:15;100593.03;;;1.82;93.23
38716;BME280;24833;49.324;8.694;2023-01-28T04:49:01;100597.47;;;1.81;92.93
38716;BME280;24833;49.324;8.694;2023-01-28T04:51:31;100604.41;;;1.82;92.95
38716;BME280;24833;49.324;8.694;2023-01-28T04:54:24;100599.97;;;1.83;93.14
38716;BME280;24833;49.324;8.694;2023-01-28T04:56:55;100601.78;;;1.82;93.08
38716;BME280;24833;49.324;8.694;2023-01-28T04:59:22;100606.06;;;1.83;93.08
38716;BME280;24833;49.324;8.694;2023-01-28T05:01:50;100603.44;;;1.83;93.28
38716;BME280;24833;49.324;8.694;2023-01-28T05:04:18;100599.84;;;1.84;93.32
38716;BME280;24833;49.324;8.694;2023-01-28T05:06:45;100603.31;;;1.85;93.04
38716;BME280;24833;49.324;8.694;2023-01-28T05:09:15;100612.03;;;1.85;93.17
38716;BME280;24833;49.324;8.694;2023-01-28T05:11:43;100608.59;;;1.85;93.02
38716;BME280;24833;49.324;8.694;2023-01-28T05:14:10;100613.72;;;1.86;92.94
38716;BME280;24833;49.324;8.694;2023-01-28T05:16:44;100613.72;;;1.86;93.06
38716;BME280;24833;49.324;8.694;2023-01-28T05:19:11;100613.72;;;1.86;93.07
38716;BME280;24833;49.324;8.694;2023-01-28T05:21:40;100616.25;;;1.88;93.34
38716;BME280;24833;49.324;8.694;2023-01-28T05:24:20;100610.16;;;1.87;93.28
38716;BME280;24833;49.324;8.694;2023-01-28T05:26:47;100611.00;;;1.88;93.27
38716;BME280;24833;49.324;8.694;2023-01-28T05:29:15;100606.56;;;1.88;93.23
38716;BME280;24833;49.324;8.694;2023-01-28T05:31:42;100608.22;;;1.89;93.13
38716;BME280;24833;49.324;8.694;2023-01-28T05:34:09;100614.47;;;1.88;93.27
38716;BME280;24833;49.324;8.694;2023-01-28T05:36:36;100616.13;;;1.89;93.13
38716;BME280;24833;49.324;8.694;2023-01-28T05:39:15;100612.66;;;1.89;93.04
38716;BME280;24833;49.324;8.694;2023-01-28T05:41:42;100623.19;;;1.89;93.10
38716;BME280;24833;49.324;8.694;2023-01-28T05:44:09;100624.03;;;1.89;93.16
38716;BME280;24833;49.324;8.694;2023-01-28T05:46:55;100630.13;;;1.90;93.03
38716;BME280;24833;49.324;8.694;2023-01-28T05:49:57;100637.06;;;1.91;92.88
38716;BME280;24833;49.324;8.694;2023-01-28T05:52:36;100633.72;;;1.89;93.20
38716;BME280;24833;49.324;8.694;2023-01-28T05:55:07;100641.50;;;1.90;93.17
38716;BME280;24833;49.324;8.694;2023-01-28T05:57:35;100642.47;;;1.89;92.85
38716;BME280;24833;49.324;8.694;2023-01-28T06:00:03;100650.38;;;1.89;93.06
38716;BME280;24833;49.324;8.694;2023-01-28T06:02:41;100656.47;;;1.90;93.09
38716;BME280;24833;49.324;8.694;2023-01-28T06:05:10;100655.63;;;1.89;92.98
38716;BME280;24833;49.324;8.694;2023-01-28T06:07:38;100653.00;;;1.89;93.22
38716;BME280;24833;49.324;8.694;2023-01-28T06:10:09;100665.31;;;1.89;93.19
38716;BME280;24833;49.324;8.694;2023-01-28T06:12:37;100665.31;;;1.89;93.00
38716;BME280;24833;49.324;8.694;2023-01-28T06:15:23;100660.06;;;1.89;93.10
38716;BME280;24833;49.324;8.694;2023-01-28T06:18:11;100669.75;;;1.88;93.08
38716;BME280;24833;49.324;8.694;2023-01-28T06:20:37;100668.78;;;1.89;92.91
38716;BME280;24833;49.324;8.694;2023-01-28T06:23:05;100661.84;;;1.88;93.19
38716;BME280;24833;49.324;8.694;2023-01-28T06:25:32;100666.16;;;1.89;93.15
38716;BME280;24833;49.324;8.694;2023-01-28T06:28:05;100672.38;;;1.88;93.19
38716;BME280;24833;49.324;8.694;2023-01-28T06:30:32;100680.16;;;1.90;93.08
38716;BME280;24833;49.324;8.694;2023-01-28T06:32:59;100677.53;;;1.90;92.83
38716;BME280;24833;49.324;8.694;2023-01-28T06:35:26;100688.06;;;1.90;93.12
38716;BME280;24833;49.324;8.694;2023-01-28T06:37:53;100677.53;;;1.90;93.17
38716;BME280;24833;49.324;8.694;2023-01-28T06:40:20;100682.78;;;1.90;93.23
38716;BME280;24833;49.324;8.694;2023-01-28T06:42:48;100685.44;;;1.90;92.84
38716;BME280;24833;49.324;8.694;2023-01-28T06:45:15;100687.22;;;1.89;92.97
38716;BME280;24833;49.324;8.694;2023-01-28T06:47:42;100686.38;;;1.89;92.88
38716;BME280;24833;49.324;8.694;2023-01-28T06:50:10;100695.13;;;1.89;92.92
38716;BME280;24833;49.324;8.694;2023-01-28T06:52:38;100694.28;;;1.89;92.89
38716;BME280;24833;49.324;8.694;2023-01-28T06:55:05;100702.19;;;1.89;92.88
38716;BME280;24833;49.324;8.694;2023-01-28T06:57:33;100701.34;;;1.88;92.88
38716;BME280;24833;49.324;8.694;2023-01-28T06:59:59;100705.78;;;1.88;93.13
38716;BME280;24833;49.324;8.694;2023-01-28T07:02:27;100714.50;;;1.88;93.01
38716;BME280;24833;49.324;8.694;2023-01-28T07:04:54;100717.16;;;1.88;93.07
38716;BME280;24833;49.324;8.694;2023-01-28T07:07:20;100717.16;;;1.88;93.28
38716;BME280;24833;49.324;8.694;2023-01-28T07:09:47;100717.16;;;1.88;92.94
38716;BME280;24833;49.324;8.694;2023-01-28T07:12:14;100719.78;;;1.88;93.19
38716;BME280;24833;49.324;8.694;2023-01-28T07:14:41;100723.13;;;1.90;93.23
38716;BME280;24833;49.324;8.694;2023-01-28T07:17:08;100718.81;;;1.89;92.84
38716;BME280;24833;49.324;8.694;2023-01-28T07:19:35;100724.91;;;1.90;93.04
38716;BME280;24833;49.324;8.694;2023-01-28T07:22:02;100724.09;;;1.89;93.06
38716;BME280;24833;49.324;8.694;2023-01-28T07:24:30;100729.34;;;1.89;93.09
38716;BME280;24833;49.324;8.694;2023-01-28T07:26:57;100733.66;;;1.90;93.20
38716;BME280;24833;49.324;8.694;2023-01-28T07:29:24;100730.06;;;1.91;93.17
38716;BME280;24833;49.324;8.694;2023-01-28T07:31:51;100727.44;;;1.91;93.24
38716;BME280;24833;49.324;8.694;2023-01-28T07:34:18;100726.59;;;1.91;93.06
38716;BME280;24833;49.324;8.694;2023-01-28T07:36:45;100724.81;;;1.91;93.23
38716;BME280;24833;49.324;8.694;2023-01-28T07:39:11;100728.28;;;1.92;92.93
38716;BME280;24833;49.324;8.694;2023-01-28T07:41:38;100730.91;;;1.92;93.26
38716;BME280;24833;49.324;8.694;2023-01-28T07:44:06;100742.28;;;1.92;92.94
38716;BME280;24833;49.324;8.694;2023-01-28T07:46:33;100741.31;;;1.94;93.12
38716;BME280;24833;49.324;8.694;2023-01-28T07:49:00;100736.03;;;1.94;93.12
38716;BME280;24833;49.324;8.694;2023-01-28T07:51:27;100737.75;;;1.95;92.99
38716;BME280;24833;49.324;8.694;2023-01-28T07:53:54;100735.13;;;1.95;93.30
38716;BME280;24833;49.324;8.694;2023-01-28T07:56:21;100737.75;;;1.95;93.26
38716;BME280;24833;49.324;8.694;2023-01-28T07:58:51;100746.38;;;1.97;93.12
38716;BME280;24833;49.324;8.694;2023-01-28T08:01:17;100745.53;;;1.96;93.26
38716;BME280;24833;49.324;8.694;2023-01-28T08:03:45;100742.78;;;1.98;93.05
38716;BME280;24833;49.324;8.694;2023-01-28T08:06:12;100747.09;;;1.99;93.30
38716;BME280;24833;49.324;8.694;2023-01-28T08:08:39;100749.72;;;1.99;93.26
38716;BME280;24833;49.324;8.694;2023-01-28T08:11:10;100756.66;;;2.00;93.06
38716;BME280;24833;49.324;8.694;2023-01-28T08:13:37;100751.38;;;2.00;93.46
38716;BME280;24833;49.324;8.694;2023-01-28T08:16:05;100753.09;;;2.01;93.11
38716;BME280;24833;49.324;8.694;2023-01-28T08:18:32;100748.66;;;2.01;93.11
38716;BME280;24833;49.324;8.694;2023-01-28T08:20:59;100762.53;;;2.03;93.37
38716;BME280;24833;49.324;8.694;2023-01-28T08:23:26;100765.88;;;2.05;93.27
38716;BME280;24833;49.324;8.694;2023-01-28T08:25:54;100756.19;;;2.06;93.44
38716;BME280;24833;49.324;8.694;2023-01-28T08:28:23;100767.56;;;2.06;93.34
38716;BME280;24833;49.324;8.694;2023-01-28T08:30:50;100771.78;;;2.09;93.41
38716;BME280;24833;49.324;8.694;2023-01-28T08:33:18;100771.78;;;2.09;93.28
38716;BME280;24833;49.324;8.694;2023-01-28T08:35:46;100768.19;;;2.10;93.48
38716;BME280;24833;49.324;8.694;2023-01-28T08:38:13;100774.16;;;2.12;93.67
38716;BME280;24833;49.324;8.694;2023-01-28T08:40:47;100780.16;;;2.14;93.55
38716;BME280;24833;49.324;8.694;2023-01-28T08:43:16;100770.34;;;2.16;93.33
38716;BME280;24833;49.324;8.694;2023-01-28T08:45:43;100773.69;;;2.18;93.70
38716;BME280;24833;49.324;8.694;2023-01-28T08:48:15;100767.47;;;2.19;93.42
38716;BME280;24833;49.324;8.694;2023-01-28T08:50:42;100775.25;;;2.21;93.46
38716;BME280;24833;49.324;8.694;2023-01-28T08:53:16;100777.78;;;2.22;93.35
38716;BME280;24833;49.324;8.694;2023-01-28T08:55:46;100779.22;;;2.26;93.54
38716;BME280;24833;49.324;8.694;2023-01-28T08:58:16;100779.97;;;2.28;93.68
38716;BME280;24833;49.324;8.694;2023-01-28T09:00:44;100776.25;;;2.31;93.65
38716;BME280;24833;49.324;8.694;2023-01-28T09:03:11;100782.22;;;2.33;94.08
38716;BME280;24833;49.324;8.694;2023-01-28T09:05:38;100784.66;;;2.36;94.05
38716;BME280;24833;49.324;8.694;2023-01-28T09:08:12;100778.28;;;2.38;94.05
38716;BME280;24833;49.324;8.694;2023-01-28T09:10:40;100781.53;;;2.42;93.99
38716;BME280;24833;49.324;8.694;2023-01-28T09:13:13;100776.97;;;2.44;94.16
38716;BME280;24833;49.324;8.694;2023-01-28T09:15:41;100777.59;;;2.48;93.96
38716;BME280;24833;49.324;8.694;2023-01-28T09:18:09;100777.34;;;2.51;94.29
38716;BME280;24833;49.324;8.694;2023-01-28T09:20:36;100783.31;;;2.53;93.92
38716;BME280;24833;49.324;8.694;2023-01-28T09:23:05;100788.38;;;2.56;94.18
38716;BME280;24833;49.324;8.694;2023-01-28T09:25:32;100781.19;;;2.58;93.92
38716;BME280;24833;49.324;8.694;2023-01-28T09:27:59;100791.50;;;2.61;94.29
38716;BME280;24833;49.324;8.694;2023-01-28T09:30:27;100793.06;;;2.63;94.25
38716;BME280;24833;49.324;8.694;2023-01-28T09:32:55;100788.50;;;2.65;93.92
38716;BME280;24833;49.324;8.694;2023-01-28T09:35:23;100793.63;;;2.67;94.22
38716;BME280;24833;49.324;8.694;2023-01-28T09:37:50;100803.97;;;2.70;94.40
38716;BME280;24833;49.324;8.694;2023-01-28T09:40:24;100802.16;;;2.70;94.26
38716;BME280;24833;49.324;8.694;2023-01-28T09:45:48;100808.03;;;2.74;94.22
38716;BME280;24833;49.324;8.694;2023-01-28T09:48:23;100807.94;;;2.76;94.33
38716;BME280;24833;49.324;8.694;2023-01-28T09:50:53;100812.25;;;2.77;94.30
38716;BME280;24833;49.324;8.694;2023-01-28T09:53:31;100804.31;;;2.77;94.04
38716;BME280;24833;49.324;8.694;2023-01-28T09:56:08;100814.75;;;2.78;94.58
38716;BME280;24833;49.324;8.694;2023-01-28T09:58:37;100817.25;;;2.80;94.19
38716;BME280;24833;49.324;8.694;2023-01-28T10:06:55;100804.44;;;2.86;94.35
38716;BME280;24833;49.324;8.694;2023-01-28T10:12:36;100821.44;;;2.93;94.64
38716;BME280;24833;49.324;8.694;2023-01-28T10:15:49;100808.75;;;2.98;94.97
38716;BME280;24833;49.324;8.694;2023-01-28T10:21:42;100806.34;;;3.07;94.99
38716;BME280;24833;49.324;8.694;2023-01-28T10:24:24;100815.69;;;3.11;95.05
38716;BME280;24833;49.324;8.694;2023-01-28T10:26:55;100814.72;;;3.12;94.76
38716;BME280;24833;49.324;8.694;2023-01-28T10:29:30;100811.13;;;3.13;94.66
38716;BME280;24833;49.324;8.694;2023-01-28T10:34:50;100821.47;;;3.16;94.70
38716;BME280;24833;49.324;8.694;2023-01-28T10:37:18;100810.91;;;3.16;94.71
38716;BME280;24833;49.324;8.694;2023-01-28T10:39:46;100821.47;;;3.16;94.51
38716;BME280;24833;49.324;8.694;2023-01-28T10:42:28;100820.63;;;3.15;94.54
38716;BME280;24833;49.324;8.694;2023-01-28T10:45:02;100818.91;;;3.14;94.50
38716;BME280;24833;49.324;8.694;2023-01-28T10:47:43;100818.06;;;3.14;94.62
38716;BME280;24833;49.324;8.694;2023-01-28T10:50:20;100818.06;;;3.14;94.83
38716;BME280;24833;49.324;8.694;2023-01-28T10:55:20;100819.88;;;3.13;94.64
38716;BME280;24833;49.324;8.694;2023-01-28T10:57:48;100821.56;;;3.14;94.76
38716;BME280;24833;49.324;8.694;2023-01-28T11:00:29;100825.06;;;3.15;94.53
38716;BME280;24833;49.324;8.694;2023-01-28T11:02:58;100825.91;;;3.15;94.63
38716;BME280;24833;49.324;8.694;2023-01-28T11:05:28;100816.28;;;3.14;94.46
38716;BME280;24833;49.324;8.694;2023-01-28T11:08:24;100826.72;;;3.16;94.66
38716;BME280;24833;49.324;8.694;2023-01-28T11:10:53;100827.69;;;3.15;94.51
38716;BME280;24833;49.324;8.694;2023-01-28T11:13:24;100828.63;;;3.14;94.76
38716;BME280;24833;49.324;8.694;2023-01-28T11:16:06;100830.34;;;3.15;94.62
38716;BME280;24833;49.324;8.694;2023-01-28T11:18:50;100825.91;;;3.15;94.78
38716;BME280;24833;49.324;8.694;2023-01-28T11:21:23;100830.34;;;3.15;94.81
38716;BME280;24833;49.324;8.694;2023-01-28T11:24:14;100820.63;;;3.15;94.59
38716;BME280;24833;49.324;8.694;2023-01-28T11:26:45;100832.00;;;3.16;94.50
38716;BME280;24833;49.324;8.694;2023-01-28T11:29:29;100824.09;;;3.16;94.59
38716;BME280;24833;49.324;8.694;2023-01-28T11:31:59;100830.22;;;3.16;94.55
38716;BME280;24833;49.324;8.694;2023-01-28T11:34:29;100823.13;;;3.17;94.90
38716;BME280;24833;49.324;8.694;2023-01-28T11:37:12;100830.09;;;3.18;94.70
38716;BME280;24833;49.324;8.694;2023-01-28T11:39:42;100820.38;;;3.18;94.68
38716;BME280;24833;49.324;8.694;2023-01-28T11:42:17;100828.16;;;3.20;94.72
38716;BME280;24833;49.324;8.694;2023-01-28T11:44:48;100828.16;;;3.20;94.71
38716;BME280;24833;49.324;8.694;2023-01-28T11:50:40;100830.69;;;3.21;94.76
38716;BME280;24833;49.324;8.694;2023-01-28T11:53:45;100825.28;;;3.23;94.50
38716;BME280;24833;49.324;8.694;2023-01-28T11:57:03;100817.38;;;3.23;94.68
38716;BME280;24833;49.324;8.694;2023-01-28T12:00:08;100813.06;;;3.22;94.85
38716;BME280;24833;49.324;8.694;2023-01-28T12:24:20;100808.34;;;3.25;94.70
38716;BME280;24833;49.324;8.694;2023-01-28T12:27:24;100795.03;;;3.27;94.95
38716;BME280;24833;49.324;8.694;2023-01-28T12:30:02;100793.13;;;3.29;94.80
38716;BME280;24833;49.324;8.694;2023-01-28T12:35:28;100797.19;;;3.33;94.85
38716;BME280;24833;49.324;8.694;2023-01-28T12:38:47;100794.31;;;3.36;94.70
38716;BME280;24833;49.324;8.694;2023-01-28T12:41:23;100791.41;;;3.39;94.93
38716;BME280;24833;49.324;8.694;2023-01-28T12:44:03;100788.53;;;3.42;94.81
38716;BME280;24833;49.324;8.694;2023-01-28T12:46:57;100792.84;;;3.43;94.39
38716;BME280;24833;49.324;8.694;2023-01-28T12:49:39;100781.94;;;3.48;94.65
38716;BME280;24833;49.324;8.694;2023-01-28T12:52:29;100792.34;;;3.49;94.86
38716;BME280;24833;49.324;8.694;2023-01-28T12:55:11;100787.78;;;3.51;94.46
38716;BME280;24833;49.324;8.694;2023-01-28T12:57:39;100794.88;;;3.51;94.45
38716;BME280;24833;49.324;8.694;2023-01-28T13:00:34;100779.63;;;3.54;95.19
38716;BME280;24833;49.324;8.694;2023-01-28T13:06:22;100792.69;;;3.56;94.50
38716;BME280;24833;49.324;8.694;2023-01-28T13:08:59;100791.84;;;3.55;94.74
38716;BME280;24833;49.324;8.694;2023-01-28T13:11:33;100784.03;;;3.54;94.37
38716;BME280;24833;49.324;8.694;2023-01-28T13:14:03;100792.09;;;3.52;93.79
38716;BME280;24833;49.324;8.694;2023-01-28T13:16:32;100798.22;;;3.53;94.37
38716;BME280;24833;49.324;8.694;2023-01-28T13:21:46;100799.31;;;3.50;94.41
38716;BME280;24833;49.324;8.694;2023-01-28T13:26:52;100796.81;;;3.49;94.26
38716;BME280;24833;49.324;8.694;2023-01-28T13:29:40;100796.19;;;3.45;93.84
38716;BME280;24833;49.324;8.694;2023-01-28T13:32:33;100796.31;;;3.44;94.08
38716;BME280;24833;49.324;8.694;2023-01-28T13:35:05;100798.13;;;3.43;94.12
38716;BME280;24833;49.324;8.694;2023-01-28T13:37:38;100799.19;;;3.41;94.25
38716;BME280;24833;49.324;8.694;2023-01-28T13:42:40;100794.19;;;3.38;93.97
38716;BME280;24833;49.324;8.694;2023-01-28T13:45:22;100794.31;;;3.36;94.21
38716;BME280;24833;49.324;8.694;2023-01-28T13:47:59;100799.72;;;3.35;94.04
38716;BME280;24833;49.324;8.694;2023-01-28T13:50:39;100802.47;;;3.33;93.94
38716;BME280;24833;49.324;8.694;2023-01-28T13:56:31;100806.31;;;3.29;94.03
38716;BME280;24833;49.324;8.694;2023-01-28T14:20:31;100856.72;;;3.15;93.49
38716;BME280;24833;49.324;8.694;2023-01-28T14:23:05;100867.50;;;3.12;93.57
38716;BME280;24833;49.324;8.694;2023-01-28T14:26:12;100862.47;;;3.09;93.16
38716;BME280;24833;49.324;8.694;2023-01-28T14:29:07;100867.84;;;3.07;93.13
38716;BME280;24833;49.324;8.694;2023-01-28T14:31:38;100867.16;;;3.05;92.96
38716;BME280;24833;49.324;8.694;2023-01-28T14:34:11;100869.91;;;3.04;93.11
38716;BME280;24833;49.324;8.694;2023-01-28T14:36:44;100868.34;;;3.01;93.05
38716;BME280;24833;49.324;8.694;2023-01-28T14:39:26;100874.56;;;3.00;93.21
38716;BME280;24833;49.324;8.694;2023-01-28T14:41:57;100877.34;;;2.98;93.15
38716;BME280;24833;49.324;8.694;2023-01-28T14:44:37;100873.97;;;2.96;93.36
38716;BME280;24833;49.324;8.694;2023-01-28T14:47:34;100865.22;;;2.96;93.23
38716;BME280;24833;49.324;8.694;2023-01-28T14:56:32;100869.19;;;2.90;93.26
38716;BME280;24833;49.324;8.694;2023-01-28T14:59:21;100872.03;;;2.87;93.01
38716;BME280;24833;49.324;8.694;2023-01-28T15:01:56;100881.88;;;2.85;92.77
38716;BME280;24833;49.324;8.694;2023-01-28T15:06:53;100885.72;;;2.81;92.26
38716;BME280;24833;49.324;8.694;2023-01-28T15:09:22;100881.50;;;2.79;92.71
38716;BME280;24833;49.324;8.694;2023-01-28T15:11:52;100885.22;;;2.76;92.32
38716;BME280;24833;49.324;8.694;2023-01-28T15:14:30;100896.84;;;2.73;92.19